sensor_id;sensor_type;location;lat;lon;timestamp;P1;durP1;ratioP1;P2;durP2;ratioP2
21266;SDS011;10791;53.108;18.326;2023-09-19T00:00:21;21.65;;;14.32;;
21266;SDS011;10791;53.108;18.326;2023-09-19T00:05:45;19.90;;;14.90;;
21266;SDS011;10791;53.108;18.326;2023-09-19T00:10:50;21.73;;;14.50;;
21266;SDS011;10791;53.108;18.326;2023-09-19T00:15:53;23.85;;;15.30;;
21266;SDS011;10791;53.108;18.326;2023-09-19T00:20:58;21.08;;;14.32;;
21266;SDS011;10791;53.108;18.326;2023-09-19T00:26:01;22.10;;;14.15;;
21266;SDS011;10791;53.108;18.326;2023-09-19T00:31:07;20.80;;;15.35;;
21266;SDS011;10791;53.108;18.326;2023-09-19T00:36:11;20.50;;;14.00;;
21266;SDS011;10791;53.108;18.326;2023-09-19T00:41:14;20.25;;;13.90;;
21266;SDS011;10791;53.108;18.326;2023-09-19T00:46:17;23.58;;;15.10;;
21266;SDS011;10791;53.108;18.326;2023-09-19T00:51:21;23.52;;;14.15;;
21266;SDS011;10791;53.108;18.326;2023-09-19T00:56:24;23.52;;;15.88;;
21266;SDS011;10791;53.108;18.326;2023-09-19T01:01:28;23.88;;;15.27;;
21266;SDS011;10791;53.108;18.326;2023-09-19T01:06:31;19.52;;;14.70;;
21266;SDS011;10791;53.108;18.326;2023-09-19T01:11:42;20.83;;;14.70;;
21266;SDS011;10791;53.108;18.326;2023-09-19T01:16:50;26.58;;;15.40;;
21266;SDS011;10791;53.108;18.326;2023-09-19T01:27:48;23.02;;;14.10;;
21266;SDS011;10791;53.108;18.326;2023-09-19T01:32:56;21.08;;;14.35;;
21266;SDS011;10791;53.108;18.326;2023-09-19T01:38:00;20.15;;;14.13;;
21266;SDS011;10791;53.108;18.326;2023-09-19T01:53:44;20.23;;;15.20;;
21266;SDS011;10791;53.108;18.326;2023-09-19T01:58:56;26.33;;;15.48;;
21266;SDS011;10791;53.108;18.326;2023-09-19T02:04:07;20.40;;;14.93;;
21266;SDS011;10791;53.108;18.326;2023-09-19T02:09:10;20.65;;;14.90;;
21266;SDS011;10791;53.108;18.326;2023-09-19T02:14:13;17.17;;;12.02;;
21266;SDS011;10791;53.108;18.326;2023-09-19T02:19:17;18.23;;;11.90;;
21266;SDS011;10791;53.108;18.326;2023-09-19T02:24:21;15.75;;;9.90;;
21266;SDS011;10791;53.108;18.326;2023-09-19T02:29:24;13.98;;;9.25;;
21266;SDS011;10791;53.108;18.326;2023-09-19T02:34:27;14.00;;;9.88;;
21266;SDS011;10791;53.108;18.326;2023-09-19T02:39:33;11.45;;;8.23;;
21266;SDS011;10791;53.108;18.326;2023-09-19T02:44:37;13.73;;;8.63;;
21266;SDS011;10791;53.108;18.326;2023-09-19T02:49:40;9.93;;;7.05;;
21266;SDS011;10791;53.108;18.326;2023-09-19T02:54:45;5.47;;;4.00;;
21266;SDS011;10791;53.108;18.326;2023-09-19T02:59:48;7.25;;;2.95;;
21266;SDS011;10791;53.108;18.326;2023-09-19T03:04:52;5.65;;;2.83;;
21266;SDS011;10791;53.108;18.326;2023-09-19T03:09:55;4.20;;;2.80;;
21266;SDS011;10791;53.108;18.326;2023-09-19T03:14:58;6.82;;;3.13;;
21266;SDS011;10791;53.108;18.326;2023-09-19T03:20:02;4.28;;;3.13;;
21266;SDS011;10791;53.108;18.326;2023-09-19T03:25:15;5.70;;;3.30;;
21266;SDS011;10791;53.108;18.326;2023-09-19T03:30:33;12.02;;;4.32;;
21266;SDS011;10791;53.108;18.326;2023-09-19T03:35:54;10.50;;;4.78;;
21266;SDS011;10791;53.108;18.326;2023-09-19T03:40:57;7.10;;;4.40;;
21266;SDS011;10791;53.108;18.326;2023-09-19T03:46:01;7.75;;;4.43;;
21266;SDS011;10791;53.108;18.326;2023-09-19T03:51:07;11.75;;;4.22;;
21266;SDS011;10791;53.108;18.326;2023-09-19T03:56:10;7.03;;;3.60;;
21266;SDS011;10791;53.108;18.326;2023-09-19T04:01:13;11.20;;;4.40;;
21266;SDS011;10791;53.108;18.326;2023-09-19T04:06:16;6.68;;;4.05;;
21266;SDS011;10791;53.108;18.326;2023-09-19T04:11:20;8.65;;;3.97;;
21266;SDS011;10791;53.108;18.326;2023-09-19T04:16:23;6.43;;;3.53;;
21266;SDS011;10791;53.108;18.326;2023-09-19T04:21:26;6.55;;;3.88;;
21266;SDS011;10791;53.108;18.326;2023-09-19T04:26:30;7.25;;;3.50;;
21266;SDS011;10791;53.108;18.326;2023-09-19T04:31:34;4.93;;;2.92;;
21266;SDS011;10791;53.108;18.326;2023-09-19T04:36:37;5.68;;;3.55;;
21266;SDS011;10791;53.108;18.326;2023-09-19T04:41:40;7.22;;;3.67;;
21266;SDS011;10791;53.108;18.326;2023-09-19T04:46:44;10.02;;;4.13;;
21266;SDS011;10791;53.108;18.326;2023-09-19T04:51:49;7.95;;;3.97;;
21266;SDS011;10791;53.108;18.326;2023-09-19T04:56:52;4.78;;;3.60;;
21266;SDS011;10791;53.108;18.326;2023-09-19T05:01:55;4.93;;;3.30;;
21266;SDS011;10791;53.108;18.326;2023-09-19T05:06:59;8.88;;;4.22;;
21266;SDS011;10791;53.108;18.326;2023-09-19T05:12:04;7.13;;;3.45;;
21266;SDS011;10791;53.108;18.326;2023-09-19T05:17:07;6.07;;;3.17;;
21266;SDS011;10791;53.108;18.326;2023-09-19T05:22:10;5.10;;;3.35;;
21266;SDS011;10791;53.108;18.326;2023-09-19T05:27:14;10.25;;;3.40;;
21266;SDS011;10791;53.108;18.326;2023-09-19T05:32:20;6.68;;;3.25;;
21266;SDS011;10791;53.108;18.326;2023-09-19T05:37:26;4.82;;;3.40;;
21266;SDS011;10791;53.108;18.326;2023-09-19T05:42:29;7.65;;;3.50;;
21266;SDS011;10791;53.108;18.326;2023-09-19T05:47:32;7.75;;;3.03;;
21266;SDS011;10791;53.108;18.326;2023-09-19T05:52:37;4.55;;;3.05;;
21266;SDS011;10791;53.108;18.326;2023-09-19T05:57:49;8.00;;;3.40;;
21266;SDS011;10791;53.108;18.326;2023-09-19T06:02:54;4.60;;;2.80;;
21266;SDS011;10791;53.108;18.326;2023-09-19T06:08:00;5.88;;;2.90;;
21266;SDS011;10791;53.108;18.326;2023-09-19T06:13:04;5.07;;;2.90;;
21266;SDS011;10791;53.108;18.326;2023-09-19T06:18:10;4.68;;;2.78;;
21266;SDS011;10791;53.108;18.326;2023-09-19T06:23:18;7.57;;;3.03;;
21266;SDS011;10791;53.108;18.326;2023-09-19T06:28:22;5.70;;;3.83;;
21266;SDS011;10791;53.108;18.326;2023-09-19T06:33:26;9.13;;;3.70;;
21266;SDS011;10791;53.108;18.326;2023-09-19T06:38:29;5.57;;;3.58;;
21266;SDS011;10791;53.108;18.326;2023-09-19T06:43:34;7.40;;;3.63;;
21266;SDS011;10791;53.108;18.326;2023-09-19T06:48:37;5.22;;;3.55;;
21266;SDS011;10791;53.108;18.326;2023-09-19T06:53:40;6.50;;;4.07;;
21266;SDS011;10791;53.108;18.326;2023-09-19T06:58:44;5.30;;;4.40;;
21266;SDS011;10791;53.108;18.326;2023-09-19T07:03:47;5.57;;;4.50;;
21266;SDS011;10791;53.108;18.326;2023-09-19T07:08:50;5.22;;;4.03;;
21266;SDS011;10791;53.108;18.326;2023-09-19T07:13:53;5.70;;;4.32;;
21266;SDS011;10791;53.108;18.326;2023-09-19T07:18:57;8.52;;;4.53;;
21266;SDS011;10791;53.108;18.326;2023-09-19T07:24:01;7.28;;;4.55;;
21266;SDS011;10791;53.108;18.326;2023-09-19T07:29:06;9.48;;;4.72;;
21266;SDS011;10791;53.108;18.326;2023-09-19T07:34:11;5.68;;;4.57;;
21266;SDS011;10791;53.108;18.326;2023-09-19T07:39:14;9.38;;;4.35;;
21266;SDS011;10791;53.108;18.326;2023-09-19T07:44:32;10.50;;;5.32;;
21266;SDS011;10791;53.108;18.326;2023-09-19T07:49:41;6.70;;;4.47;;
21266;SDS011;10791;53.108;18.326;2023-09-19T07:54:45;9.00;;;4.78;;
21266;SDS011;10791;53.108;18.326;2023-09-19T07:59:51;10.35;;;5.35;;
21266;SDS011;10791;53.108;18.326;2023-09-19T08:04:54;7.55;;;5.03;;
21266;SDS011;10791;53.108;18.326;2023-09-19T08:10:00;7.78;;;5.30;;
21266;SDS011;10791;53.108;18.326;2023-09-19T08:15:03;7.85;;;5.55;;
21266;SDS011;10791;53.108;18.326;2023-09-19T08:20:08;8.02;;;5.32;;
21266;SDS011;10791;53.108;18.326;2023-09-19T08:25:20;8.85;;;4.90;;
21266;SDS011;10791;53.108;18.326;2023-09-19T08:30:24;8.55;;;5.05;;
21266;SDS011;10791;53.108;18.326;2023-09-19T08:35:29;8.73;;;5.57;;
21266;SDS011;10791;53.108;18.326;2023-09-19T08:40:33;9.32;;;5.50;;
21266;SDS011;10791;53.108;18.326;2023-09-19T08:45:42;7.85;;;5.60;;
21266;SDS011;10791;53.108;18.326;2023-09-19T08:55:54;8.13;;;5.05;;
21266;SDS011;10791;53.108;18.326;2023-09-19T09:01:00;11.40;;;6.18;;
21266;SDS011;10791;53.108;18.326;2023-09-19T09:06:04;10.77;;;5.20;;
21266;SDS011;10791;53.108;18.326;2023-09-19T09:11:07;4.65;;;4.13;;
21266;SDS011;10791;53.108;18.326;2023-09-19T09:16:13;8.45;;;4.20;;
21266;SDS011;10791;53.108;18.326;2023-09-19T09:21:23;5.78;;;4.50;;
21266;SDS011;10791;53.108;18.326;2023-09-19T09:26:46;4.80;;;3.95;;
21266;SDS011;10791;53.108;18.326;2023-09-19T09:31:50;6.60;;;4.18;;
21266;SDS011;10791;53.108;18.326;2023-09-19T09:36:53;4.55;;;3.17;;
21266;SDS011;10791;53.108;18.326;2023-09-19T09:41:56;4.32;;;3.55;;
21266;SDS011;10791;53.108;18.326;2023-09-19T09:47:02;6.20;;;2.92;;
21266;SDS011;10791;53.108;18.326;2023-09-19T09:52:24;4.47;;;2.78;;
21266;SDS011;10791;53.108;18.326;2023-09-19T09:57:27;5.25;;;2.75;;
21266;SDS011;10791;53.108;18.326;2023-09-19T10:02:50;4.47;;;2.35;;
21266;SDS011;10791;53.108;18.326;2023-09-19T10:07:55;4.40;;;2.83;;
21266;SDS011;10791;53.108;18.326;2023-09-19T10:13:12;4.68;;;2.53;;
21266;SDS011;10791;53.108;18.326;2023-09-19T10:18:21;3.40;;;2.47;;
21266;SDS011;10791;53.108;18.326;2023-09-19T10:23:26;4.10;;;2.58;;
21266;SDS011;10791;53.108;18.326;2023-09-19T10:28:36;2.50;;;2.28;;
21266;SDS011;10791;53.108;18.326;2023-09-19T10:33:41;3.60;;;2.15;;
21266;SDS011;10791;53.108;18.326;2023-09-19T10:38:45;5.55;;;2.85;;
21266;SDS011;10791;53.108;18.326;2023-09-19T10:43:53;3.42;;;2.22;;
21266;SDS011;10791;53.108;18.326;2023-09-19T10:49:00;2.78;;;1.90;;
21266;SDS011;10791;53.108;18.326;2023-09-19T10:54:11;4.60;;;2.00;;
21266;SDS011;10791;53.108;18.326;2023-09-19T10:59:17;4.65;;;1.80;;
21266;SDS011;10791;53.108;18.326;2023-09-19T11:04:28;2.63;;;1.58;;
21266;SDS011;10791;53.108;18.326;2023-09-19T11:09:51;2.80;;;1.52;;
21266;SDS011;10791;53.108;18.326;2023-09-19T11:14:57;3.55;;;1.23;;
21266;SDS011;10791;53.108;18.326;2023-09-19T11:30:35;3.15;;;1.52;;
21266;SDS011;10791;53.108;18.326;2023-09-19T11:41:39;3.20;;;1.85;;
21266;SDS011;10791;53.108;18.326;2023-09-19T11:51:57;1.83;;;1.25;;
21266;SDS011;10791;53.108;18.326;2023-09-19T11:57:03;2.30;;;1.00;;
21266;SDS011;10791;53.108;18.326;2023-09-19T12:02:07;1.77;;;1.10;;
21266;SDS011;10791;53.108;18.326;2023-09-19T12:07:14;3.28;;;1.38;;
21266;SDS011;10791;53.108;18.326;2023-09-19T12:12:28;1.83;;;1.00;;
21266;SDS011;10791;53.108;18.326;2023-09-19T12:22:45;1.95;;;1.05;;
21266;SDS011;10791;53.108;18.326;2023-09-19T12:27:50;5.53;;;1.63;;
21266;SDS011;10791;53.108;18.326;2023-09-19T12:33:19;2.63;;;0.98;;
21266;SDS011;10791;53.108;18.326;2023-09-19T12:38:26;2.78;;;1.30;;
21266;SDS011;10791;53.108;18.326;2023-09-19T12:43:38;3.78;;;1.08;;
21266;SDS011;10791;53.108;18.326;2023-09-19T12:48:42;2.78;;;0.95;;
21266;SDS011;10791;53.108;18.326;2023-09-19T12:53:56;1.73;;;1.08;;
21266;SDS011;10791;53.108;18.326;2023-09-19T12:59:00;2.65;;;1.20;;
21266;SDS011;10791;53.108;18.326;2023-09-19T13:04:15;4.25;;;1.40;;
21266;SDS011;10791;53.108;18.326;2023-09-19T13:09:28;5.38;;;1.23;;
21266;SDS011;10791;53.108;18.326;2023-09-19T13:14:38;2.85;;;1.00;;
21266;SDS011;10791;53.108;18.326;2023-09-19T13:19:47;2.80;;;0.98;;
21266;SDS011;10791;53.108;18.326;2023-09-19T13:24:52;1.52;;;0.77;;
21266;SDS011;10791;53.108;18.326;2023-09-19T13:29:55;3.05;;;1.02;;
21266;SDS011;10791;53.108;18.326;2023-09-19T13:35:00;5.03;;;2.20;;
21266;SDS011;10791;53.108;18.326;2023-09-19T13:40:04;2.38;;;1.33;;
21266;SDS011;10791;53.108;18.326;2023-09-19T13:45:08;4.82;;;1.40;;
21266;SDS011;10791;53.108;18.326;2023-09-19T13:50:15;3.90;;;1.30;;
21266;SDS011;10791;53.108;18.326;2023-09-19T13:55:19;3.65;;;1.60;;
21266;SDS011;10791;53.108;18.326;2023-09-19T14:00:23;2.25;;;1.40;;
21266;SDS011;10791;53.108;18.326;2023-09-19T14:05:27;4.80;;;1.65;;
21266;SDS011;10791;53.108;18.326;2023-09-19T14:10:30;3.65;;;1.60;;
21266;SDS011;10791;53.108;18.326;2023-09-19T14:15:36;5.43;;;1.42;;
21266;SDS011;10791;53.108;18.326;2023-09-19T14:20:40;4.28;;;1.52;;
21266;SDS011;10791;53.108;18.326;2023-09-19T14:25:44;4.70;;;2.00;;
21266;SDS011;10791;53.108;18.326;2023-09-19T14:30:47;3.03;;;1.58;;
21266;SDS011;10791;53.108;18.326;2023-09-19T14:35:51;2.92;;;1.45;;
21266;SDS011;10791;53.108;18.326;2023-09-19T14:41:02;3.85;;;1.77;;
21266;SDS011;10791;53.108;18.326;2023-09-19T14:46:06;2.65;;;1.50;;
21266;SDS011;10791;53.108;18.326;2023-09-19T14:51:13;3.40;;;1.83;;
21266;SDS011;10791;53.108;18.326;2023-09-19T14:56:17;3.83;;;1.60;;
21266;SDS011;10791;53.108;18.326;2023-09-19T15:01:21;6.15;;;1.85;;
21266;SDS011;10791;53.108;18.326;2023-09-19T15:06:25;5.32;;;1.70;;
21266;SDS011;10791;53.108;18.326;2023-09-19T15:11:29;3.92;;;2.03;;
21266;SDS011;10791;53.108;18.326;2023-09-19T15:16:31;6.40;;;1.70;;
21266;SDS011;10791;53.108;18.326;2023-09-19T15:21:35;4.63;;;1.77;;
21266;SDS011;10791;53.108;18.326;2023-09-19T15:26:43;5.32;;;1.80;;
21266;SDS011;10791;53.108;18.326;2023-09-19T15:31:47;5.40;;;2.20;;
21266;SDS011;10791;53.108;18.326;2023-09-19T15:36:50;6.10;;;1.98;;
21266;SDS011;10791;53.108;18.326;2023-09-19T15:41:53;5.88;;;2.10;;
21266;SDS011;10791;53.108;18.326;2023-09-19T15:46:58;8.82;;;2.00;;
21266;SDS011;10791;53.108;18.326;2023-09-19T15:52:01;3.97;;;2.25;;
21266;SDS011;10791;53.108;18.326;2023-09-19T15:57:05;6.13;;;2.15;;
21266;SDS011;10791;53.108;18.326;2023-09-19T16:02:09;4.38;;;1.73;;
21266;SDS011;10791;53.108;18.326;2023-09-19T16:07:12;3.17;;;1.60;;
21266;SDS011;10791;53.108;18.326;2023-09-19T16:12:15;6.18;;;2.38;;
21266;SDS011;10791;53.108;18.326;2023-09-19T16:17:19;7.55;;;2.20;;
21266;SDS011;10791;53.108;18.326;2023-09-19T16:22:22;4.72;;;2.35;;
21266;SDS011;10791;53.108;18.326;2023-09-19T16:27:25;7.00;;;2.20;;
21266;SDS011;10791;53.108;18.326;2023-09-19T16:32:28;4.53;;;2.20;;
21266;SDS011;10791;53.108;18.326;2023-09-19T16:37:31;4.30;;;2.20;;
21266;SDS011;10791;53.108;18.326;2023-09-19T16:42:35;3.80;;;2.45;;
21266;SDS011;10791;53.108;18.326;2023-09-19T16:47:41;4.80;;;2.40;;
21266;SDS011;10791;53.108;18.326;2023-09-19T16:52:44;4.15;;;2.30;;
21266;SDS011;10791;53.108;18.326;2023-09-19T16:57:47;5.30;;;2.47;;
21266;SDS011;10791;53.108;18.326;2023-09-19T17:02:51;5.30;;;2.60;;
21266;SDS011;10791;53.108;18.326;2023-09-19T17:07:57;7.18;;;2.78;;
21266;SDS011;10791;53.108;18.326;2023-09-19T17:13:04;6.85;;;3.25;;
21266;SDS011;10791;53.108;18.326;2023-09-19T17:18:10;5.22;;;3.30;;
21266;SDS011;10791;53.108;18.326;2023-09-19T17:23:14;5.35;;;3.05;;
21266;SDS011;10791;53.108;18.326;2023-09-19T17:28:17;5.78;;;2.88;;
21266;SDS011;10791;53.108;18.326;2023-09-19T17:33:20;17.73;;;5.10;;
21266;SDS011;10791;53.108;18.326;2023-09-19T17:38:24;23.52;;;8.10;;
21266;SDS011;10791;53.108;18.326;2023-09-19T17:43:27;28.83;;;10.27;;
21266;SDS011;10791;53.108;18.326;2023-09-19T17:48:31;24.65;;;8.93;;
21266;SDS011;10791;53.108;18.326;2023-09-19T17:53:35;26.17;;;9.65;;
21266;SDS011;10791;53.108;18.326;2023-09-19T17:58:40;28.73;;;9.88;;
21266;SDS011;10791;53.108;18.326;2023-09-19T18:03:46;24.50;;;9.40;;
21266;SDS011;10791;53.108;18.326;2023-09-19T18:08:51;27.15;;;9.25;;
21266;SDS011;10791;53.108;18.326;2023-09-19T18:13:57;21.40;;;8.70;;
21266;SDS011;10791;53.108;18.326;2023-09-19T18:19:02;19.60;;;7.22;;
21266;SDS011;10791;53.108;18.326;2023-09-19T18:24:07;13.07;;;5.80;;
21266;SDS011;10791;53.108;18.326;2023-09-19T18:29:17;23.48;;;10.15;;
21266;SDS011;10791;53.108;18.326;2023-09-19T18:34:20;24.45;;;11.80;;
21266;SDS011;10791;53.108;18.326;2023-09-19T18:39:24;26.08;;;10.57;;
21266;SDS011;10791;53.108;18.326;2023-09-19T18:44:28;24.85;;;12.32;;
21266;SDS011;10791;53.108;18.326;2023-09-19T18:49:31;16.37;;;8.33;;
21266;SDS011;10791;53.108;18.326;2023-09-19T18:54:37;13.30;;;5.43;;
21266;SDS011;10791;53.108;18.326;2023-09-19T18:59:41;11.43;;;5.93;;
21266;SDS011;10791;53.108;18.326;2023-09-19T19:04:46;9.17;;;5.43;;
21266;SDS011;10791;53.108;18.326;2023-09-19T19:09:51;16.10;;;6.37;;
21266;SDS011;10791;53.108;18.326;2023-09-19T19:14:54;12.23;;;6.20;;
21266;SDS011;10791;53.108;18.326;2023-09-19T19:19:58;18.13;;;7.50;;
21266;SDS011;10791;53.108;18.326;2023-09-19T19:25:03;18.90;;;7.63;;
21266;SDS011;10791;53.108;18.326;2023-09-19T19:30:12;21.00;;;7.90;;
21266;SDS011;10791;53.108;18.326;2023-09-19T19:35:20;16.60;;;7.37;;
21266;SDS011;10791;53.108;18.326;2023-09-19T19:40:25;15.73;;;8.00;;
21266;SDS011;10791;53.108;18.326;2023-09-19T19:45:31;17.40;;;7.67;;
21266;SDS011;10791;53.108;18.326;2023-09-19T19:50:55;13.90;;;7.30;;
21266;SDS011;10791;53.108;18.326;2023-09-19T19:55:59;16.77;;;7.87;;
21266;SDS011;10791;53.108;18.326;2023-09-19T20:01:08;13.90;;;7.33;;
21266;SDS011;10791;53.108;18.326;2023-09-19T20:06:13;13.27;;;7.07;;
21266;SDS011;10791;53.108;18.326;2023-09-19T20:11:16;14.40;;;6.77;;
21266;SDS011;10791;53.108;18.326;2023-09-19T20:16:21;14.73;;;7.03;;
21266;SDS011;10791;53.108;18.326;2023-09-19T20:21:24;13.57;;;6.50;;
21266;SDS011;10791;53.108;18.326;2023-09-19T20:26:37;15.03;;;6.50;;
21266;SDS011;10791;53.108;18.326;2023-09-19T20:32:07;10.60;;;6.37;;
21266;SDS011;10791;53.108;18.326;2023-09-19T20:37:11;12.77;;;6.97;;
21266;SDS011;10791;53.108;18.326;2023-09-19T20:42:14;12.17;;;6.77;;
21266;SDS011;10791;53.108;18.326;2023-09-19T20:47:19;10.13;;;6.27;;
21266;SDS011;10791;53.108;18.326;2023-09-19T20:52:22;11.03;;;6.27;;
21266;SDS011;10791;53.108;18.326;2023-09-19T20:58:36;11.03;;;5.70;;
21266;SDS011;10791;53.108;18.326;2023-09-19T21:04:05;12.87;;;6.30;;
21266;SDS011;10791;53.108;18.326;2023-09-19T21:09:38;10.93;;;5.80;;
21266;SDS011;10791;53.108;18.326;2023-09-19T21:14:44;13.33;;;5.20;;
21266;SDS011;10791;53.108;18.326;2023-09-19T21:19:48;12.77;;;6.90;;
21266;SDS011;10791;53.108;18.326;2023-09-19T21:24:54;9.13;;;5.90;;
21266;SDS011;10791;53.108;18.326;2023-09-19T21:29:58;11.80;;;5.27;;
21266;SDS011;10791;53.108;18.326;2023-09-19T21:35:01;9.87;;;5.63;;
21266;SDS011;10791;53.108;18.326;2023-09-19T21:40:07;10.13;;;5.13;;
21266;SDS011;10791;53.108;18.326;2023-09-19T21:45:12;11.30;;;5.90;;
21266;SDS011;10791;53.108;18.326;2023-09-19T21:50:16;11.63;;;6.80;;
21266;SDS011;10791;53.108;18.326;2023-09-19T21:55:25;24.33;;;7.50;;
21266;SDS011;10791;53.108;18.326;2023-09-19T22:00:29;13.17;;;6.77;;
21266;SDS011;10791;53.108;18.326;2023-09-19T22:05:40;10.40;;;5.33;;
21266;SDS011;10791;53.108;18.326;2023-09-19T22:10:45;9.80;;;5.33;;
21266;SDS011;10791;53.108;18.326;2023-09-19T22:15:55;10.33;;;5.53;;
21266;SDS011;10791;53.108;18.326;2023-09-19T22:21:01;9.97;;;5.43;;
21266;SDS011;10791;53.108;18.326;2023-09-19T22:26:15;8.60;;;5.03;;
21266;SDS011;10791;53.108;18.326;2023-09-19T22:31:26;12.17;;;5.33;;
21266;SDS011;10791;53.108;18.326;2023-09-19T22:36:38;13.87;;;7.47;;
21266;SDS011;10791;53.108;18.326;2023-09-19T22:41:45;16.73;;;7.17;;
21266;SDS011;10791;53.108;18.326;2023-09-19T22:46:49;14.57;;;6.53;;
21266;SDS011;10791;53.108;18.326;2023-09-19T22:51:53;12.03;;;5.13;;
21266;SDS011;10791;53.108;18.326;2023-09-19T22:57:01;7.93;;;5.03;;
21266;SDS011;10791;53.108;18.326;2023-09-19T23:02:05;10.97;;;5.10;;
21266;SDS011;10791;53.108;18.326;2023-09-19T23:07:11;8.03;;;4.23;;
21266;SDS011;10791;53.108;18.326;2023-09-19T23:12:14;8.63;;;4.80;;
21266;SDS011;10791;53.108;18.326;2023-09-19T23:17:22;12.83;;;5.27;;
21266;SDS011;10791;53.108;18.326;2023-09-19T23:22:25;9.50;;;5.13;;
21266;SDS011;10791;53.108;18.326;2023-09-19T23:27:31;8.90;;;4.53;;
21266;SDS011;10791;53.108;18.326;2023-09-19T23:32:38;7.33;;;4.20;;
21266;SDS011;10791;53.108;18.326;2023-09-19T23:37:41;11.23;;;5.03;;
21266;SDS011;10791;53.108;18.326;2023-09-19T23:42:44;12.77;;;4.73;;
21266;SDS011;10791;53.108;18.326;2023-09-19T23:47:48;9.10;;;5.03;;
21266;SDS011;10791;53.108;18.326;2023-09-19T23:52:53;10.47;;;5.13;;
21266;SDS011;10791;53.108;18.326;2023-09-19T23:57:56;16.73;;;6.63;;
